Flight Track Log - Related Links

Times and Time Zones

All times are in EDT time to prevent confusion due to time zone crossing. See the GJS3657 flight status page for this flight to view local times or setup timezone preferences in your user account.

Time Position Orientation Groundspeed Altitude Reporting Facility
EDT Latitude Longitude Course Direction KTS MPH feet Rate Location/Type
Tue 05:30:06 PM 38.9167 -77.4333 141° Southeast 155 178 1,700  Level Potomac TRACON
Tue 05:31:07 PM 38.8667 -77.4167 165° South 208 239 3,600 2,231 Climbing Potomac TRACON
Tue 05:32:07 PM 38.8000 -77.4167 180° South 249 287 6,200 2,500 Climbing Potomac TRACON
Tue 05:33:00 PM 38.6706 -77.7119 189° South  Level Estimated
Tue 05:33:07 PM 38.7333 -77.4500 201° Southwest 280 322 8,600  Level Potomac TRACON
Tue 05:34:00 PM 38.6013 -77.7746 185° South  Level Estimated
Tue 05:34:07 PM 38.6667 -77.5167 218° Southwest 291 335 10,000  Level Potomac TRACON
Tue 05:34:51 PM 38.6239 -77.5742 226° Southwest 285 328 10,100 1,143 Climbing Washington Center
Tue 05:35:00 PM 38.5353 -77.7064 141° Southeast  Level FlightAware
Tue 05:35:52 PM 38.5728 -77.6469 228° Southwest 290 334 12,000  Level Washington Center
Tue 05:36:53 PM 38.4953 -77.6661 191° South 319 367 14,200 2,319 Climbing Washington Center
Tue 05:37:51 PM 38.4678 -77.5672 110° East 359 413 16,600 1,983 Climbing Washington Center
Tue 05:38:51 PM 38.4189 -77.4892 129° Southeast 336 387 18,100 1,736 Climbing Washington Center
Tue 05:39:52 PM 38.3389 -77.5347 204° Southwest 228 262 20,100 1,785 Climbing Washington Center
Tue 05:40:52 PM 38.2811 -77.6311 233° Southwest 228 262 21,700 966 Climbing Washington Center
Tue 05:41:50 PM 38.2208 -77.7431 236° Southwest 318 366 22,000 151 Climbing Washington Center
Tue 05:42:51 PM 38.1622 -77.8628 238° Southwest 362 417 22,000  Level Washington Center
Tue 05:43:51 PM 38.1014 -77.9825 237° Southwest 391 450 22,000  Level Washington Center
Tue 05:44:51 PM 38.0408 -78.0992 237° Southwest 398 458 22,000  Level Washington Center
Tue 05:45:52 PM 37.9800 -78.2106 235° Southwest 403 464 22,000  Level Washington Center
Tue 05:46:52 PM 37.9067 -78.3158 229° Southwest 403 464 22,000  Level Washington Center
Tue 05:47:50 PM 37.8269 -78.4286 228° Southwest 403 464 22,000  Level Washington Center
Tue 05:48:51 PM 37.7533 -78.5336 228° Southwest 403 464 22,000  Level Washington Center
Tue 05:49:52 PM 37.6886 -78.6256 228° Southwest 393 452 22,000  Level Washington Center
Tue 05:50:52 PM 37.6258 -78.7147 228° Southwest 366 421 22,000  Level Washington Center
Tue 05:51:52 PM 37.5672 -78.7961 228° Southwest 355 409 22,000  Level Washington Center
Tue 05:52:50 PM 37.5022 -78.8903 229° Southwest 355 409 22,000  Level Washington Center
Tue 05:53:51 PM 37.4394 -78.9764 227° Southwest 355 409 22,000  Level Washington Center
Tue 05:54:52 PM 37.3742 -79.0678 228° Southwest 355 409 22,000  Level Washington Center
Tue 05:55:50 PM 37.3044 -79.1664 228° Southwest 355 409 22,000  Level Washington Center
Tue 05:56:51 PM 37.2392 -79.2547 227° Southwest 355 409 22,000  Level Washington Center
Tue 05:57:51 PM 37.1778 -79.3481 230° Southwest 355 409 22,000  Level Washington Center
Tue 05:58:52 PM 37.0819 -79.4111 208° Southwest 367 422 22,000 -504 Level Washington Center
Tue 05:59:50 PM 36.9739 -79.4681 203° Southwest 393 452 21,000 -1,613 Descending Washington Center
Tue 06:00:51 PM 36.8844 -79.5208 205° Southwest 404 465 18,800 -2,066 Descending Washington Center
Tue 06:01:52 PM 36.7889 -79.5731 204° Southwest 398 458 16,800 -1,967 Descending Washington Center
Tue 06:03:00 PM 36.6967 -79.6077 208° Southwest  Level FlightAware
Tue 06:10:00 PM 36.1599 -79.9034 202° Southwest  Level FlightAware
Tue 06:11:00 PM 36.1013 -79.9411 202° Southwest  Level Estimated
Tue 06:12:00 PM 36.1013 -79.9411 28° Northeast  Level Estimated
Tue 06:13:00 PM 36.1000 -79.9333 28° Northeast  Level FlightAware
Tue 06:14:00 PM 36.1013 -79.9411 28° Northeast  Level Estimated

Login

Don't have an account? Register now (free) for customized features, flight alerts, and more!